Terminal Aerodrome Forecast
Issued by NWS Buffalo, NY

Home | Current Version | Previous Version | Text Only | Print | Product List | Glossary On
Versions: 1 2 3 4 5 6 7 8 9 10 11 12 13 14 15 16 17 18 19 20 21 22 23 24 25
000
FTUS41 KBUF 222336
TAFROC
TAF
KROC 222336Z 2300/2324 23008KT P6SM BKN100
     FM230600 22010KT P6SM VCSH OVC040
     FM231400 22012G20KT P6SM VCSH OVC025
     FM231700 24014G22KT 5SM SHRA VCTS OVC025CB=

USA.gov is the U.S. government's official web portal to all federal, state and local government web resources and services.